首页
METAR-TAF:

METAR-TAF

机场 :

雷克雅維克, 冰岛

纬度: 64-08N, 经度: 021-54W, 海拔: 54米

当前天气观测

该预报发布于13分钟前的07:00 UTC
风速4节,风向西北
温度 8°C
湿度 87%
气压 1017 hPa
能見度: 8000
少量云层高于200英尺
多云层高于1800英尺
阴天层高于3000英尺
小毛毛雨

METAR: BIRK 190700Z 32004KT 8000 -DZ FEW002 BKN018 OVC030 08/06 Q1017

时间: 07:13 (07:13 UTC)

预报

该预报发布于2小时和12分钟前的05:01 UTC
预报有效从19日的 06点(UTC)到 20日的 06点(UTC)
风速2节,风向多变
能見度: 9000
散云层高于1500英尺
多云层高于1500英尺
阴天层高于2500英尺
小雨, 毛毛雨
短暂存在
从 19日的 06点(UTC)到 20日的 06点(UTC)
能見度: 3000
多云层高于500英尺
阴天层高于1000英尺
毛毛雨, 轻雾
成为
从 19日的 10点(UTC)到 19日的 13点(UTC)
风速10节,风向西转西北
成为
从 19日的 21点(UTC)到 20日的 00点(UTC)
风速4节,风向

TAF: BIRK 190501Z 1906/2006 VRB02KT 9000 -RADZ SCT015 BKN015 OVC025 TX09/1913Z TN06/2006Z TEMPO 1906/2006 3000 DZ BR BKN005 OVC010 BECMG 1910/1913 29010KT BECMG 1921/2000 17004KT

超过4000个机场的气象观测和天气预报(METAR&TAF报告)。

可查询的气象台以黄色和红色小点在地图上表示。

将鼠标移到小点上方,可查看气象台名称。

然后点击查看天气观测和预报。

如需切换地图:点击带黑十字的绿色按钮放大地图;点击带横线的绿色按钮缩小地图;或者点击绿色箭头查看邻近地区的地图。


METAR-TAF: